Time;durP1;ratioP1;P1;durP2;ratioP2;P2;SDS_P1;SDS_P2;PMS_P1;PMS_P2;Temp;Humidity;BMP_temperature;BMP_pressure;BME280_temperature;BME280_humidity;BME280_pressure;Samples;Min_cycle;Max_cycle;Signal;HPM_P1;HPM_P2
2022/04/11 00:01:54;;;;;;;5.75;4.28;;;;;;;7.26;64.70;99232.69;4979673;28;20383;-59
2022/04/11 00:04:20;;;;;;;5.97;3.78;;;;;;;7.17;64.88;99225.13;4989452;28;20444;-59
2022/04/11 00:06:45;;;;;;;4.90;3.78;;;;;;;7.02;65.53;99228.78;4988762;28;20427;-59
2022/04/11 00:09:11;;;;;;;6.07;4.00;;;;;;;6.97;65.92;99214.25;4994766;28;20487;-59
2022/04/11 00:11:36;;;;;;;5.95;4.10;;;;;;;7.06;65.66;99220.13;4995547;28;20100;-59
2022/04/11 00:14:04;;;;;;;5.50;3.72;;;;;;;7.03;65.73;99230.47;4996368;28;20389;-59
2022/04/11 00:16:30;;;;;;;5.97;4.13;;;;;;;6.99;66.40;99233.13;4994873;28;20050;-59
2022/04/11 00:18:55;;;;;;;6.22;3.70;;;;;;;7.12;65.64;99231.22;5008084;28;20125;-60
2022/04/11 00:21:21;;;;;;;6.85;3.63;;;;;;;6.94;66.16;99233.19;5008608;28;20529;-60
2022/04/11 00:23:47;;;;;;;6.15;3.53;;;;;;;7.00;65.78;99222.81;4995780;28;20047;-60
2022/04/11 00:26:12;;;;;;;6.88;3.92;;;;;;;6.80;67.06;99233.38;4996323;28;20053;-60
2022/04/11 00:28:38;;;;;;;4.45;3.42;;;;;;;6.96;66.99;99233.19;4996061;28;20116;-59
2022/04/11 00:31:04;;;;;;;3.58;3.20;;;;;;;6.79;67.37;99241.13;4995915;28;20504;-60
2022/04/11 00:33:29;;;;;;;5.35;2.88;;;;;;;6.89;67.17;99242.69;4995859;28;20050;-60
2022/04/11 00:35:55;;;;;;;5.82;2.63;;;;;;;6.88;67.67;99252.16;4995922;28;20046;-59
2022/04/11 00:38:21;;;;;;;4.95;2.65;;;;;;;6.77;68.14;99242.84;4996229;28;20507;-59
2022/04/11 00:40:46;;;;;;;4.30;2.30;;;;;;;6.63;68.18;99241.31;4994867;28;20046;-60
2022/04/11 00:43:35;;;;;;;2.70;2.00;;;;;;;6.36;68.36;99176.47;4978311;28;20492;-60
2022/04/11 00:46:02;;;;;;;4.05;2.03;;;;;;;6.74;68.82;99243.75;4988953;28;20050;-60
2022/04/11 00:48:27;;;;;;;2.42;2.00;;;;;;;6.54;69.24;99241.41;4993970;28;20098;-60
2022/04/11 00:51:01;;;;;;;2.80;1.65;;;;;;;6.23;70.04;99223.78;4996079;28;20050;-60
2022/04/11 00:53:30;;;;;;;2.25;1.45;;;;;;;6.35;70.31;99261.38;5002308;28;20041;-60
2022/04/11 00:55:57;;;;;;;1.55;1.40;;;;;;;6.34;70.41;99239.97;4993868;28;20038;-59
2022/04/11 00:58:23;;;;;;;1.55;1.40;;;;;;;6.35;70.34;99227.94;4995839;28;20050;-59
2022/04/11 01:00:49;;;;;;;1.40;1.30;;;;;;;6.35;70.66;99233.09;4995734;28;20529;-59
2022/04/11 01:03:15;;;;;;;1.98;1.60;;;;;;;6.39;70.80;99237.31;4961996;28;20125;-58
2022/04/11 01:05:41;;;;;;;3.15;1.52;;;;;;;6.56;70.28;99239.69;4994993;28;20061;-59
2022/04/11 01:08:08;;;;;;;3.22;1.50;;;;;;;6.52;70.27;99238.03;4977816;28;20128;-59
2022/04/11 01:10:34;;;;;;;3.38;1.50;;;;;;;6.56;70.40;99237.13;4995366;28;20046;-59
2022/04/11 01:13:01;;;;;;;1.75;1.40;;;;;;;6.25;71.45;99234.91;4995263;28;20122;-59
2022/04/11 01:15:27;;;;;;;1.50;1.38;;;;;;;6.30;71.71;99225.44;4995280;28;20074;-59
2022/04/11 01:17:53;;;;;;;1.75;1.10;;;;;;;6.45;71.52;99232.09;4995247;28;20085;-60
2022/04/11 01:20:20;;;;;;;1.58;1.42;;;;;;;6.62;71.12;99234.47;4974443;28;20050;-60
2022/04/11 01:22:48;;;;;;;2.38;1.20;;;;;;;6.42;71.11;99167.84;4993848;28;20050;-60
2022/04/11 01:25:15;;;;;;;2.38;1.58;;;;;;;6.64;70.96;99234.44;4994584;28;20427;-60
2022/04/11 01:27:41;;;;;;;2.40;1.77;;;;;;;6.66;71.17;99230.16;4989721;28;20058;-60
2022/04/11 01:30:09;;;;;;;1.55;1.20;;;;;;;6.43;71.01;99233.84;4994821;28;20050;-59
2022/04/11 01:32:35;;;;;;;1.20;1.10;;;;;;;6.58;71.33;99235.38;4977805;28;20042;-60
2022/04/11 01:35:01;;;;;;;2.55;1.70;;;;;;;6.54;71.32;99239.72;5014746;28;20050;-59
2022/04/11 01:37:28;;;;;;;1.52;1.20;;;;;;;6.64;70.82;99231.88;4991567;28;20084;-59
2022/04/11 01:39:54;;;;;;;4.93;1.17;;;;;;;6.64;70.78;99231.88;4995896;28;20081;-60
2022/04/11 01:42:19;;;;;;;1.30;0.93;;;;;;;6.81;70.56;99237.66;4985375;28;20537;-59
2022/04/11 01:44:45;;;;;;;3.72;1.23;;;;;;;6.81;70.18;99223.94;4994862;28;20046;-59
2022/04/11 01:47:11;;;;;;;2.35;1.30;;;;;;;6.52;71.10;99230.31;4995056;28;20054;-59
2022/04/11 01:49:36;;;;;;;1.98;1.33;;;;;;;6.25;72.07;99234.91;4979073;28;20503;-60
2022/04/11 01:52:02;;;;;;;1.38;0.90;;;;;;;6.53;72.00;99224.31;4988567;28;20050;-58
2022/04/11 01:54:28;;;;;;;1.98;1.38;;;;;;;6.57;71.73;99224.25;4999125;28;20100;-59
2022/04/11 01:56:53;;;;;;;1.42;1.20;;;;;;;6.63;71.61;99225.03;4983870;28;20047;-60
2022/04/11 01:59:19;;;;;;;2.75;1.30;;;;;;;6.30;72.39;99233.16;4977135;28;20078;-59
2022/04/11 02:01:44;;;;;;;1.60;1.42;;;;;;;6.37;72.24;99218.47;5011593;28;20046;-59
2022/04/11 02:04:10;;;;;;;2.65;1.35;;;;;;;6.34;72.93;99239.09;4988628;28;20127;-59
2022/04/11 02:06:36;;;;;;;1.58;1.42;;;;;;;6.46;72.61;99238.94;4984358;28;20054;-59
2022/04/11 02:09:02;;;;;;;1.98;1.45;;;;;;;6.37;73.15;99234.78;4994576;28;20065;-59
2022/04/11 02:11:28;;;;;;;1.63;1.30;;;;;;;6.45;72.84;99238.97;4976526;28;20518;-59
2022/04/11 02:13:53;;;;;;;1.20;1.10;;;;;;;6.35;73.19;99241.63;4994193;28;20046;-60
2022/04/11 02:16:19;;;;;;;2.20;1.50;;;;;;;6.55;72.96;99241.41;4994277;28;20226;-59
2022/04/11 02:18:44;;;;;;;2.42;1.58;;;;;;;6.70;72.50;99237.78;5003319;28;20064;-59
2022/04/11 02:21:10;;;;;;;1.40;1.30;;;;;;;6.60;72.42;99231.06;4991651;28;20050;-59
2022/04/11 02:23:35;;;;;;;1.92;1.30;;;;;;;6.68;72.44;99229.25;4993707;28;20046;-60
2022/04/11 02:26:02;;;;;;;3.03;1.10;;;;;;;6.25;72.98;99224.63;4974925;28;20054;-57
2022/04/11 02:28:28;;;;;;;2.92;1.20;;;;;;;6.24;74.03;99230.63;4994175;28;20132;-57
2022/04/11 02:30:54;;;;;;;1.38;1.20;;;;;;;5.95;74.60;99231.75;4993668;28;20128;-57
2022/04/11 02:33:19;;;;;;;1.80;1.40;;;;;;;5.86;75.75;99229.28;4993938;28;20118;-57
2022/04/11 02:35:45;;;;;;;1.48;1.25;;;;;;;6.10;74.66;99235.06;4993727;28;20047;-57
2022/04/11 02:38:11;;;;;;;2.88;1.30;;;;;;;5.76;75.72;99233.66;4993965;28;20066;-58
2022/04/11 02:40:36;;;;;;;1.85;1.30;;;;;;;6.04;75.35;99231.72;4993787;28;20058;-57
2022/04/11 02:43:02;;;;;;;2.40;1.40;;;;;;;6.01;75.00;99221.47;4993755;28;20049;-57
2022/04/11 02:45:28;;;;;;;2.35;1.65;;;;;;;5.86;75.43;99219.00;4993442;28;20057;-58
2022/04/11 02:47:53;;;;;;;1.30;1.13;;;;;;;5.90;75.04;99219.81;4993484;28;20049;-58
2022/04/11 02:50:19;;;;;;;1.60;1.45;;;;;;;6.04;74.66;99224.00;5000749;28;20054;-58
2022/04/11 02:52:44;;;;;;;2.45;1.35;;;;;;;6.19;74.24;99237.56;4997046;28;20046;-58
2022/04/11 02:55:10;;;;;;;1.63;1.48;;;;;;;6.33;74.03;99238.25;4999801;28;20046;-58
2022/04/11 02:57:39;;;;;;;2.92;1.13;;;;;;;6.51;73.89;99239.75;4991454;28;20151;-57
2022/04/11 03:00:07;;;;;;;1.73;1.33;;;;;;;6.30;73.45;99214.28;4996939;28;20046;-58
2022/04/11 03:02:33;;;;;;;1.70;1.27;;;;;;;6.49;73.17;99230.34;5012011;28;20534;-58
2022/04/11 03:04:59;;;;;;;2.10;1.63;;;;;;;6.51;73.38;99221.75;5013078;28;20078;-58
2022/04/11 03:07:27;;;;;;;2.63;1.40;;;;;;;6.37;73.35;99219.34;5001577;28;20463;-58
2022/04/11 03:09:53;;;;;;;3.40;1.73;;;;;;;6.39;73.34;99217.59;5003130;28;20057;-58
2022/04/11 03:12:19;;;;;;;1.60;1.50;;;;;;;6.43;73.87;99209.81;4979648;28;20046;-58
2022/04/11 03:14:44;;;;;;;1.60;1.50;;;;;;;6.43;73.35;99210.69;4997139;28;20057;-58
2022/04/11 03:17:10;;;;;;;2.33;1.52;;;;;;;6.43;73.77;99204.69;4993295;28;20519;-59
2022/04/11 03:19:36;;;;;;;2.00;1.80;;;;;;;6.27;74.16;99204.91;4993155;28;20391;-58
2022/04/11 03:22:01;;;;;;;1.75;1.63;;;;;;;6.49;73.76;99225.22;4994978;28;20164;-58
2022/04/11 03:24:27;;;;;;;1.90;1.70;;;;;;;6.45;73.41;99226.13;4998043;28;20053;-59
2022/04/11 03:26:52;;;;;;;1.70;1.60;;;;;;;6.11;75.24;99218.78;4988347;28;20137;-58
2022/04/11 03:29:18;;;;;;;3.10;1.80;;;;;;;6.32;74.47;99225.41;5011086;28;20054;-58
2022/04/11 03:31:43;;;;;;;2.20;1.80;;;;;;;6.13;74.44;99224.75;4993177;28;20038;-58
2022/04/11 03:34:09;;;;;;;1.95;1.67;;;;;;;5.94;75.78;99226.63;4993537;28;20046;-58
2022/04/11 03:36:35;;;;;;;2.80;1.75;;;;;;;6.13;75.22;99235.03;4992810;28;20061;-58
2022/04/11 03:39:00;;;;;;;2.50;1.70;;;;;;;6.09;75.00;99229.09;4990088;28;20054;-57
2022/04/11 03:41:26;;;;;;;3.05;1.77;;;;;;;5.91;75.76;99234.38;4986748;28;20049;-57
2022/04/11 03:43:51;;;;;;;1.92;1.60;;;;;;;6.14;75.08;99221.31;4993343;28;20466;-58
2022/04/11 03:46:17;;;;;;;2.70;1.70;;;;;;;5.92;76.17;99225.81;4992989;28;20042;-58
2022/04/11 03:48:42;;;;;;;2.17;1.60;;;;;;;6.05;75.70;99215.41;4992469;28;20076;-58
2022/04/11 03:51:08;;;;;;;2.03;1.65;;;;;;;6.03;75.28;99221.44;5002486;28;20038;-58
2022/04/11 03:53:34;;;;;;;2.28;2.00;;;;;;;6.01;75.92;99225.72;5000565;28;20455;-58
2022/04/11 03:55:59;;;;;;;3.58;2.00;;;;;;;6.07;75.46;99225.69;4993268;28;20043;-58
2022/04/11 03:58:25;;;;;;;3.80;2.13;;;;;;;6.05;76.03;99212.81;4992860;28;20053;-58
2022/04/11 04:00:50;;;;;;;3.53;1.70;;;;;;;6.26;75.57;99223.75;4988063;28;20046;-58
2022/04/11 04:03:16;;;;;;;4.25;1.77;;;;;;;6.09;75.30;99213.66;4978032;28;20039;-57
2022/04/11 04:05:43;;;;;;;4.40;1.80;;;;;;;6.00;76.19;99209.47;4992718;28;20368;-58
2022/04/11 04:08:12;;;;;;;2.63;1.80;;;;;;;5.80;76.59;99212.22;4992527;28;20050;-58
2022/04/11 04:10:38;;;;;;;4.57;1.92;;;;;;;5.89;76.36;99198.41;4992802;28;20038;-58
2022/04/11 04:13:04;;;;;;;2.78;1.88;;;;;;;5.47;77.91;99187.69;4992645;28;20046;-57
2022/04/11 04:15:30;;;;;;;2.60;1.80;;;;;;;5.63;77.80;99178.09;4998958;28;20108;-57
2022/04/11 04:17:56;;;;;;;2.13;1.60;;;;;;;5.56;77.40;99177.34;4992771;28;20046;-58
2022/04/11 04:20:25;;;;;;;3.28;1.60;;;;;;;5.72;77.36;99184.91;4999705;28;20046;-58
2022/04/11 04:22:52;;;;;;;2.75;1.52;;;;;;;5.36;77.79;99187.78;4994709;28;20160;-58
2022/04/11 04:25:18;;;;;;;3.50;1.77;;;;;;;5.57;78.01;99163.59;4992303;28;20081;-58
2022/04/11 04:27:43;;;;;;;2.10;1.90;;;;;;;5.61;78.09;99151.59;4985639;28;20078;-58
2022/04/11 04:30:09;;;;;;;7.88;2.40;;;;;;;5.70;77.21;99139.53;4993374;28;20065;-57
2022/04/11 04:32:34;;;;;;;3.00;2.25;;;;;;;5.61;77.54;99128.47;4996216;28;20526;-57
2022/04/11 04:35:01;;;;;;;3.92;2.08;;;;;;;5.80;77.78;99132.56;4996229;28;20109;-58
2022/04/11 04:37:26;;;;;;;2.70;2.20;;;;;;;6.07;76.50;99147.72;4995701;28;20415;-58
2022/04/11 04:39:52;;;;;;;3.05;2.03;;;;;;;6.01;76.35;99154.63;4995803;28;20056;-58
2022/04/11 04:42:26;;;;;;;4.32;2.00;;;;;;;5.95;76.95;99171.81;4995830;28;20137;-59
2022/04/11 04:44:52;;;;;;;4.15;1.88;;;;;;;5.87;76.72;99172.75;4995683;28;20084;-58
2022/04/11 04:47:18;;;;;;;1.85;1.60;;;;;;;5.75;76.65;99147.16;4995811;28;20050;-58
2022/04/11 04:49:44;;;;;;;1.92;1.70;;;;;;;6.09;76.19;99149.41;5009350;28;20096;-57
2022/04/11 04:52:10;;;;;;;3.55;2.03;;;;;;;5.74;76.73;99134.34;4995705;28;20108;-57
2022/04/11 04:54:37;;;;;;;3.92;1.65;;;;;;;5.85;76.25;99132.50;5004544;28;20521;-57
2022/04/11 04:57:03;;;;;;;3.75;2.15;;;;;;;5.57;77.92;99121.66;4994955;28;20053;-58
2022/04/11 04:59:28;;;;;;;2.67;1.60;;;;;;;5.45;78.49;99107.25;5015287;28;20045;-57
2022/04/11 05:01:54;;;;;;;3.45;2.00;;;;;;;5.47;78.55;99090.97;4979832;28;20515;-58
2022/04/11 05:04:20;;;;;;;2.65;1.83;;;;;;;5.64;77.56;99077.06;4989829;28;20403;-58
2022/04/11 05:06:45;;;;;;;2.33;1.80;;;;;;;5.61;77.55;99077.13;4984793;28;20050;-58
2022/04/11 05:09:11;;;;;;;2.65;1.80;;;;;;;5.49;78.03;99058.41;5012739;28;20174;-58
2022/04/11 05:11:36;;;;;;;5.40;2.08;;;;;;;5.74;77.21;99052.97;5015586;28;20049;-58
2022/04/11 05:14:02;;;;;;;3.00;2.03;;;;;;;5.73;77.21;99038.44;4996284;28;20050;-57
2022/04/11 05:16:27;;;;;;;4.70;1.83;;;;;;;5.80;77.20;99034.06;5009116;28;20603;-58
2022/04/11 05:18:53;;;;;;;3.80;1.70;;;;;;;5.60;77.13;99036.88;5005545;28;20495;-58
2022/04/11 05:21:18;;;;;;;7.30;2.10;;;;;;;5.72;76.97;99030.75;4995133;28;20488;-58
2022/04/11 05:23:44;;;;;;;4.72;1.98;;;;;;;5.73;76.44;99050.41;4999158;28;20710;-58
2022/04/11 05:26:10;;;;;;;2.97;1.50;;;;;;;5.35;77.62;99050.84;4999030;28;20045;-57
2022/04/11 05:28:35;;;;;;;3.92;1.70;;;;;;;5.36;78.04;99046.56;4998088;28;20050;-58
2022/04/11 05:31:01;;;;;;;3.95;1.90;;;;;;;5.52;78.23;99049.81;4988107;28;20038;-57
2022/04/11 05:33:27;;;;;;;2.38;1.60;;;;;;;5.11;79.20;99066.50;4994657;28;20460;-58
2022/04/11 05:35:53;;;;;;;3.88;1.70;;;;;;;5.08;79.48;99051.13;4994982;28;20050;-57
2022/04/11 05:38:19;;;;;;;2.45;1.83;;;;;;;5.39;79.01;99061.06;4994707;28;20050;-58
2022/04/11 05:40:45;;;;;;;2.72;2.08;;;;;;;5.45;78.66;99073.88;5003123;28;20044;-58
2022/04/11 05:43:13;;;;;;;5.45;2.03;;;;;;;5.33;79.27;99062.84;4993854;28;20046;-57
2022/04/11 05:45:42;;;;;;;5.32;2.28;;;;;;;5.18;79.80;99073.28;4994330;28;20100;-58
2022/04/11 05:48:08;;;;;;;3.90;2.00;;;;;;;5.40;79.51;99062.78;4997656;28;20161;-59
2022/04/11 05:50:34;;;;;;;2.65;1.90;;;;;;;5.30;79.99;99047.50;5013991;28;20050;-57
2022/04/11 05:53:01;;;;;;;5.30;2.22;;;;;;;5.36;80.06;99044.00;5012142;28;20056;-58
2022/04/11 05:55:30;;;;;;;4.00;2.40;;;;;;;5.37;80.26;99040.56;5000523;28;20058;-58
2022/04/11 05:57:55;;;;;;;4.97;2.42;;;;;;;5.31;80.84;99025.22;4994650;28;20227;-58
2022/04/11 06:00:21;;;;;;;7.38;2.00;;;;;;;5.37;81.03;98999.47;4994391;28;20078;-57
2022/04/11 06:02:47;;;;;;;2.97;2.45;;;;;;;5.42;81.38;98960.94;4971174;28;20514;-58
2022/04/11 06:05:13;;;;;;;3.90;2.30;;;;;;;5.57;80.45;98958.13;4985752;28;20065;-58
2022/04/11 06:07:39;;;;;;;3.00;2.63;;;;;;;5.48;80.81;98946.28;4993003;28;20054;-57
2022/04/11 06:10:05;;;;;;;6.03;2.63;;;;;;;5.52;80.57;98939.38;4993166;28;20457;-57
2022/04/11 06:12:31;;;;;;;7.07;2.90;;;;;;;5.56;80.12;98942.75;4992081;28;20054;-58
2022/04/11 06:14:58;;;;;;;6.68;2.53;;;;;;;5.46;80.32;98944.63;4995516;28;20559;-57
2022/04/11 06:17:24;;;;;;;4.72;2.50;;;;;;;5.39;80.18;98951.53;4997452;28;20100;-57
2022/04/11 06:19:51;;;;;;;4.68;2.30;;;;;;;5.28;81.32;98969.63;4996412;28;20483;-58
2022/04/11 06:22:17;;;;;;;6.20;2.92;;;;;;;5.31;81.81;98951.59;4994489;28;20065;-57
2022/04/11 06:24:43;;;;;;;4.82;2.53;;;;;;;5.55;81.66;98959.06;5009349;28;20042;-56
2022/04/11 06:27:09;;;;;;;5.95;3.75;;;;;;;5.39;83.38;98956.66;4989714;28;20050;-58
2022/04/11 06:29:35;;;;;;;6.00;4.10;;;;;;;5.27;83.85;98939.72;4989983;28;20415;-59
2022/04/11 06:32:04;;;;;;;5.15;3.80;;;;;;;5.20;84.38;98932.91;4988393;28;20050;-57
2022/04/11 06:34:34;;;;;;;6.93;3.20;;;;;;;5.15;84.74;98945.81;4991771;28;20042;-58
2022/04/11 06:36:59;;;;;;;4.57;3.15;;;;;;;5.14;84.51;98951.81;4990942;28;20050;-58
2022/04/11 06:39:25;;;;;;;4.25;2.75;;;;;;;5.09;84.81;98939.88;4989066;28;20140;-58
2022/04/11 06:41:51;;;;;;;5.40;3.17;;;;;;;5.03;84.83;98945.97;4990732;28;20049;-58
2022/04/11 06:44:16;;;;;;;10.88;4.28;;;;;;;5.22;84.81;98956.03;4988245;28;20060;-59
2022/04/11 06:46:42;;;;;;;6.20;3.35;;;;;;;5.21;84.36;98980.84;4988136;28;21362;-57
2022/04/11 06:49:26;;;;;;;4.90;3.22;;;;;;;5.28;83.92;99002.16;4985757;28;20053;-58
2022/04/11 06:51:52;;;;;;;4.90;3.60;;;;;;;5.58;83.72;99023.22;4985957;28;20066;-58
2022/04/11 06:54:17;;;;;;;5.05;3.60;;;;;;;5.57;84.15;99035.19;4989498;28;20057;-58
2022/04/11 06:56:43;;;;;;;7.80;3.88;;;;;;;5.68;84.35;99079.59;4993768;28;20133;-57
2022/04/11 06:59:08;;;;;;;6.50;3.10;;;;;;;5.85;83.53;99117.09;4989870;28;20550;-57
2022/04/11 07:01:34;;;;;;;6.20;4.05;;;;;;;5.87;84.82;99130.75;4989545;28;20054;-57
2022/04/11 07:03:59;;;;;;;8.63;4.38;;;;;;;5.94;85.03;99150.38;4987867;28;20050;-58
2022/04/11 07:06:25;;;;;;;7.38;3.88;;;;;;;5.91;85.21;99137.56;4989084;28;20058;-57
2022/04/11 07:08:50;;;;;;;6.57;4.40;;;;;;;5.96;85.59;99120.38;4988391;28;20058;-57
2022/04/11 07:11:16;;;;;;;8.88;4.10;;;;;;;6.01;85.55;99118.66;4989770;28;20054;-58
2022/04/11 07:13:41;;;;;;;5.85;4.10;;;;;;;5.96;86.14;99135.81;4999690;28;20376;-57
2022/04/11 07:16:07;;;;;;;7.10;4.10;;;;;;;6.06;85.86;99105.75;4993642;28;20046;-57
2022/04/11 07:18:35;;;;;;;8.55;3.53;;;;;;;6.11;85.73;99097.97;4992477;28;20125;-57
2022/04/11 07:21:01;;;;;;;6.78;4.18;;;;;;;6.08;86.33;99098.84;4993188;28;20057;-57
2022/04/11 07:23:27;;;;;;;9.48;5.25;;;;;;;6.12;86.43;99102.25;4992441;28;20045;-58
2022/04/11 07:25:53;;;;;;;8.77;5.47;;;;;;;6.16;86.88;99119.34;4993838;28;20438;-57
2022/04/11 07:28:18;;;;;;;9.45;4.68;;;;;;;6.13;87.14;99121.91;4985585;28;20062;-57
2022/04/11 07:30:44;;;;;;;7.45;4.78;;;;;;;6.12;86.40;99099.66;4993410;28;20109;-58
2022/04/11 07:33:10;;;;;;;7.38;4.40;;;;;;;6.17;85.60;99113.28;4992115;28;20054;-57
2022/04/11 07:35:36;;;;;;;7.82;4.30;;;;;;;6.26;85.69;99112.34;4992794;28;20050;-58
2022/04/11 07:38:02;;;;;;;22.20;13.18;;;;;;;6.24;85.78;99093.50;4993308;28;20054;-57
2022/04/11 07:40:29;;;;;;;8.52;6.20;;;;;;;6.01;85.70;99063.81;4993263;28;20042;-57
2022/04/11 07:42:55;;;;;;;7.32;5.32;;;;;;;5.93;86.14;99042.47;4993709;28;20042;-57
2022/04/11 07:45:21;;;;;;;8.13;5.25;;;;;;;6.18;86.56;99050.72;4975641;28;20173;-58
2022/04/11 07:47:46;;;;;;;9.85;6.20;;;;;;;6.16;86.28;99048.19;4993310;28;20062;-58
2022/04/11 07:50:12;;;;;;;9.18;5.90;;;;;;;6.14;85.70;99031.94;4993364;28;20058;-58
2022/04/11 07:52:42;;;;;;;8.10;5.53;;;;;;;6.16;84.86;99026.78;4992233;28;20053;-57
2022/04/11 07:55:10;;;;;;;10.13;7.15;;;;;;;6.10;85.51;99019.13;5002232;28;20050;-57
2022/04/11 07:57:37;;;;;;;6.82;4.82;;;;;;;6.07;84.76;99020.06;4999099;28;20128;-57
2022/04/11 08:00:06;;;;;;;26.77;15.07;;;;;;;5.77;85.05;98965.59;5055198;23;20133;-57
2022/04/11 08:02:32;;;;;;;7.45;5.35;;;;;;;5.96;84.90;99001.31;4987944;28;20035;-57
2022/04/11 08:05:01;;;;;;;6.45;4.47;;;;;;;5.82;83.74;98993.78;4987223;28;20022;-58
2022/04/11 08:07:26;;;;;;;6.75;5.25;;;;;;;5.75;84.43;99005.03;5003404;28;20026;-57
2022/04/11 08:09:52;;;;;;;6.97;5.07;;;;;;;5.85;84.70;99001.47;4995556;28;20030;-57
2022/04/11 08:12:18;;;;;;;8.30;5.30;;;;;;;5.96;85.41;98976.47;4990213;28;20076;-58
2022/04/11 08:14:43;;;;;;;7.15;4.90;;;;;;;6.03;84.31;98982.41;4999287;28;20113;-57
2022/04/11 08:17:09;;;;;;;7.63;5.05;;;;;;;6.01;83.62;98977.28;4996473;28;20101;-57
2022/04/11 08:19:34;;;;;;;11.23;5.57;;;;;;;5.69;84.66;98983.66;4997675;28;20032;-57
2022/04/11 08:22:00;;;;;;;6.05;4.32;;;;;;;5.60;84.66;98993.22;4994930;28;20110;-58
2022/04/11 08:24:26;;;;;;;6.60;4.35;;;;;;;5.58;84.51;98987.25;5004230;28;20022;-59
2022/04/11 08:26:51;;;;;;;8.25;4.60;;;;;;;5.56;84.83;98987.28;4997138;28;20057;-57
2022/04/11 08:29:20;;;;;;;7.50;3.97;;;;;;;5.73;83.70;98984.50;4995256;28;20113;-58
2022/04/11 08:31:45;;;;;;;9.10;6.80;;;;;;;5.62;83.64;98981.22;5004116;28;20057;-58
2022/04/11 08:34:11;;;;;;;7.25;4.50;;;;;;;5.70;83.36;98993.09;5005077;28;20435;-57
2022/04/11 08:36:37;;;;;;;8.25;4.18;;;;;;;5.59;83.90;98981.25;4995151;28;20034;-58
2022/04/11 08:39:03;;;;;;;6.68;3.85;;;;;;;5.53;84.20;98990.72;5014209;28;20030;-58
2022/04/11 08:41:36;;;;;;;7.93;4.35;;;;;;;5.45;84.07;98977.13;4994636;28;20476;-58
2022/04/11 08:44:06;;;;;;;3.70;3.30;;;;;;;5.17;84.30;98961.19;4983365;28;20073;-58
2022/04/11 08:46:34;;;;;;;6.78;4.03;;;;;;;5.35;84.90;98988.38;4974654;28;20775;-58
2022/04/11 08:49:02;;;;;;;5.25;3.63;;;;;;;5.24;84.67;98991.06;5008300;28;20383;-56
2022/04/11 08:51:31;;;;;;;5.60;3.60;;;;;;;5.36;85.19;98954.16;5001499;28;20034;-57
2022/04/11 08:53:59;;;;;;;5.28;3.67;;;;;;;5.35;85.05;98963.53;4999257;28;20379;-57
2022/04/11 08:56:25;;;;;;;15.05;4.40;;;;;;;5.37;85.49;98966.09;4995114;28;20028;-57
2022/04/11 08:58:50;;;;;;;28.83;6.85;;;;;;;5.51;85.57;98945.38;5006307;28;20026;-58
2022/04/11 09:01:17;;;;;;;16.95;4.18;;;;;;;5.45;84.41;98922.38;5001833;28;20058;-57
2022/04/11 09:03:43;;;;;;;36.53;7.03;;;;;;;5.29;84.94;98909.72;4994676;28;20042;-59
2022/04/11 09:06:13;;;;;;;23.30;5.63;;;;;;;5.28;85.78;98925.16;5005294;28;20555;-59
2022/04/11 09:08:52;;;;;;;18.58;5.40;;;;;;;5.35;85.32;98950.72;4994929;28;20032;-58
2022/04/11 09:11:31;;;;;;;7.78;4.13;;;;;;;5.33;85.76;98946.44;4999639;28;20493;-58
2022/04/11 09:14:00;;;;;;;13.35;4.82;;;;;;;5.26;85.83;98926.88;4997577;28;20495;-58
2022/04/11 09:16:26;;;;;;;7.50;3.88;;;;;;;5.27;84.72;98929.44;4994782;28;20068;-57
2022/04/11 09:18:54;;;;;;;5.80;4.28;;;;;;;5.23;85.83;98932.91;4978693;28;20101;-59
2022/04/11 09:21:22;;;;;;;5.72;4.72;;;;;;;5.50;85.71;98954.81;4995466;28;20076;-58
2022/04/11 09:23:49;;;;;;;5.20;3.85;;;;;;;5.56;84.36;98971.88;4993982;28;20101;-58
2022/04/11 09:26:16;;;;;;;5.68;4.35;;;;;;;5.13;85.19;98919.34;4993460;28;20025;-58
2022/04/11 09:28:41;;;;;;;5.57;3.60;;;;;;;5.68;84.74;99001.69;4993803;28;20050;-58
2022/04/11 09:31:07;;;;;;;7.47;4.53;;;;;;;5.85;84.80;98988.63;4995060;28;20034;-57
2022/04/11 09:33:40;;;;;;;5.50;4.05;;;;;;;5.89;84.04;99015.97;4993638;28;20031;-58
2022/04/11 09:36:06;;;;;;;6.22;4.00;;;;;;;5.85;84.63;99035.69;4991813;28;20367;-57
2022/04/11 09:38:38;;;;;;;4.20;3.72;;;;;;;5.93;83.78;99022.78;4993576;28;20117;-58
2022/04/11 09:41:03;;;;;;;6.63;3.88;;;;;;;5.94;83.77;99039.88;4993882;28;20029;-58
2022/04/11 09:43:33;;;;;;;5.03;3.63;;;;;;;5.93;83.55;99017.63;4996842;28;20030;-58
2022/04/11 09:46:02;;;;;;;8.23;3.65;;;;;;;5.72;83.46;98959.66;4995879;28;20061;-58
2022/04/11 09:48:33;;;;;;;6.82;4.70;;;;;;;6.13;83.36;98995.94;5004570;28;20033;-57
2022/04/11 09:51:01;;;;;;;9.18;5.13;;;;;;;6.04;82.42;98995.22;4994219;28;20034;-58
2022/04/11 09:53:33;;;;;;;6.22;5.10;;;;;;;6.01;83.56;99020.13;4995404;28;20042;-58
2022/04/11 09:56:05;;;;;;;10.80;5.63;;;;;;;5.82;83.84;98989.50;5004529;28;20030;-58
2022/04/11 09:58:33;;;;;;;;;;;;;;;6.13;83.69;99037.94;5009253;28;20109;-59
2022/04/11 10:01:01;;;;;;;9.10;4.95;;;;;;;6.12;83.34;99043.94;5004259;28;19956;-58
2022/04/11 10:03:28;;;;;;;5.88;5.28;;;;;;;5.80;83.50;98986.13;4993763;28;20125;-58
2022/04/11 10:05:54;;;;;;;7.50;5.50;;;;;;;6.13;83.61;99048.22;5012679;28;20109;-57
2022/04/11 10:08:23;;;;;;;10.18;5.50;;;;;;;6.16;83.56;99040.47;4994471;28;20133;-57
2022/04/11 10:10:50;;;;;;;17.60;12.23;;;;;;;6.19;83.11;99049.88;4994807;28;20073;-57
2022/04/11 10:13:16;;;;;;;7.75;5.65;;;;;;;5.93;83.03;99029.59;4989528;28;20034;-58
2022/04/11 10:15:45;;;;;;;9.65;5.30;;;;;;;5.78;83.61;99039.22;4994270;28;20466;-58
2022/04/11 10:18:14;;;;;;;8.20;5.30;;;;;;;5.33;84.39;98967.00;4996635;28;20037;-58
2022/04/11 10:20:44;;;;;;;8.35;5.40;;;;;;;5.74;84.27;99000.75;4994280;28;20030;-58
2022/04/11 10:23:27;;;;;;;10.20;6.78;;;;;;;5.78;84.70;98999.84;4993077;28;20023;-58
2022/04/11 10:25:57;;;;;;;6.15;5.30;;;;;;;5.89;84.48;98954.31;4997512;28;20055;-59
2022/04/11 10:28:25;;;;;;;7.05;5.90;;;;;;;5.40;84.60;98870.22;4996600;28;20053;-58
2022/04/11 10:31:10;;;;;;;8.50;6.28;;;;;;;5.93;84.83;98950.81;4989130;28;20498;-58
2022/04/11 10:33:47;;;;;;;9.40;5.82;;;;;;;5.46;85.02;98890.69;4996562;28;20145;-59
2022/04/11 10:36:35;;;;;;;6.85;5.90;;;;;;;5.72;85.33;98966.53;4998162;28;20023;-58
2022/04/11 10:39:12;;;;;;;6.38;5.78;;;;;;;5.91;85.28;98965.38;4976123;28;20498;-57
2022/04/11 10:41:56;;;;;;;8.65;6.40;;;;;;;5.94;85.12;98992.78;4993702;28;20030;-58
2022/04/11 10:44:43;;;;;;;6.38;5.70;;;;;;;5.60;84.45;99008.63;4993296;28;20034;-58
2022/04/11 10:47:09;;;;;;;8.05;6.25;;;;;;;5.80;85.66;98980.09;4993008;28;20085;-57
2022/04/11 10:49:58;;;;;;;7.53;6.45;;;;;;;5.85;85.45;98978.34;4994471;28;20109;-58
2022/04/11 10:52:28;;;;;;;6.78;5.63;;;;;;;5.85;85.30;98978.34;4993698;28;20116;-57
2022/04/11 10:54:55;;;;;;;7.88;5.97;;;;;;;5.98;86.15;98958.47;4990510;28;20094;-57
2022/04/11 10:57:38;;;;;;;7.15;5.53;;;;;;;5.97;85.84;98982.44;4996805;28;20033;-57
2022/04/11 11:00:14;;;;;;;7.05;5.18;;;;;;;5.94;85.28;98970.47;5005094;28;20077;-58
2022/04/11 11:03:04;;;;;;;5.97;4.95;;;;;;;6.09;85.72;98974.59;4988943;28;20050;-57
2022/04/11 11:05:35;;;;;;;5.43;4.97;;;;;;;6.21;85.21;98976.13;5010423;28;20058;-58
2022/04/11 11:08:10;;;;;;;6.75;5.55;;;;;;;6.09;85.02;98981.47;4997214;28;20138;-58
2022/04/11 11:10:50;;;;;;;5.68;4.78;;;;;;;6.05;84.41;98962.66;5000580;28;20079;-57
2022/04/11 11:13:43;;;;;;;5.50;4.78;;;;;;;6.13;84.10;98975.38;5003083;28;20034;-57
2022/04/11 11:16:10;;;;;;;6.75;5.07;;;;;;;6.00;84.58;98979.84;4989199;28;20026;-57
2022/04/11 11:18:48;;;;;;;7.10;4.85;;;;;;;5.96;84.67;98999.59;4994180;28;20033;-57
2022/04/11 11:21:22;;;;;;;6.40;5.13;;;;;;;5.99;84.77;98991.88;4998127;28;20585;-57
2022/04/11 11:24:12;;;;;;;6.90;5.10;;;;;;;5.70;85.36;98998.22;5001658;28;20021;-58
2022/04/11 11:26:57;;;;;;;5.00;4.50;;;;;;;5.38;85.35;98929.28;4973650;28;20029;-58
2022/04/11 11:29:30;;;;;;;6.28;5.15;;;;;;;5.76;85.76;98984.44;4991643;28;20116;-58
2022/04/11 11:31:57;;;;;;;6.70;6.00;;;;;;;5.69;86.20;98986.25;4982041;28;20487;-58
2022/04/11 11:34:25;;;;;;;5.43;4.90;;;;;;;5.72;86.07;98997.38;4992798;28;20111;-57
2022/04/11 11:36:53;;;;;;;7.10;5.15;;;;;;;5.99;86.08;98980.75;4992972;28;20406;-58
2022/04/11 11:39:23;;;;;;;6.10;5.03;;;;;;;6.03;85.74;98988.38;4995274;28;20117;-57
2022/04/11 11:41:50;;;;;;;6.82;5.35;;;;;;;6.15;85.71;98989.09;4984599;28;20034;-58
2022/04/11 11:44:17;;;;;;;8.30;5.45;;;;;;;6.22;85.06;99004.38;4999381;28;20121;-58